Time;durP1;ratioP1;P1;durP2;ratioP2;P2;SDS_P1;SDS_P2;PMS_P1;PMS_P2;Temp;Humidity;BMP_temperature;BMP_pressure;BME280_temperature;BME280_humidity;BME280_pressure;Samples;Min_cycle;Max_cycle;Signal;HPM_P1;HPM_P2
2022/11/19 00:01:05;;;;;;;58.03;3.20;;;;;;;;;;5113925;28;20539;-76
2022/11/19 00:03:33;;;;;;;58.47;3.43;;;;;;;;;;5114000;28;20484;-76
2022/11/19 00:06:03;;;;;;;58.57;3.60;;;;;;;;;;5113750;28;20877;-76
2022/11/19 00:08:30;;;;;;;59.20;3.63;;;;;;;;;;5113579;28;20496;-76
2022/11/19 00:11:03;;;;;;;59.90;3.77;;;;;;;;;;5113774;28;20520;-77
2022/11/19 00:13:29;;;;;;;58.80;3.30;;;;;;;;;;5113813;28;20532;-77
2022/11/19 00:16:01;;;;;;;59.20;3.10;;;;;;;;;;5113667;28;20491;-77
2022/11/19 00:18:28;;;;;;;58.90;4.20;;;;;;;;;;5113398;28;20466;-77
2022/11/19 00:20:56;;;;;;;59.70;3.97;;;;;;;;;;5112837;28;20445;-77
2022/11/19 00:23:23;;;;;;;58.80;3.60;;;;;;;;;;5113627;28;20964;-77
2022/11/19 00:25:50;;;;;;;61.23;3.40;;;;;;;;;;5113831;28;20880;-77
2022/11/19 00:28:17;;;;;;;59.10;3.80;;;;;;;;;;5113907;28;20595;-77
2022/11/19 00:30:44;;;;;;;57.53;3.53;;;;;;;;;;5114663;28;20532;-78
2022/11/19 00:33:13;;;;;;;58.27;3.87;;;;;;;;;;5114638;28;20537;-78
2022/11/19 00:35:41;;;;;;;59.63;3.70;;;;;;;;;;5115957;28;20536;-78
2022/11/19 00:38:08;;;;;;;59.30;4.27;;;;;;;;;;5116268;28;20501;-78
2022/11/19 00:40:35;;;;;;;62.97;4.33;;;;;;;;;;5116671;28;20514;-78
2022/11/19 00:45:47;;;;;;;59.57;4.40;;;;;;;;;;5117192;28;20499;-78
2022/11/19 00:48:16;;;;;;;59.57;4.70;;;;;;;;;;5116696;28;20850;-78
2022/11/19 00:50:43;;;;;;;62.00;4.50;;;;;;;;;;5117061;28;20505;-78
2022/11/19 00:53:10;;;;;;;60.13;4.13;;;;;;;;;;5116864;28;20890;-78
2022/11/19 00:55:37;;;;;;;58.57;3.90;;;;;;;;;;5117727;28;20532;-79
2022/11/19 00:58:05;;;;;;;60.70;4.47;;;;;;;;;;5117849;28;20504;-79
2022/11/19 01:00:32;;;;;;;59.70;4.37;;;;;;;;;;5117265;28;20477;-79
2022/11/19 01:02:59;;;;;;;60.00;4.20;;;;;;;;;;5117574;28;21059;-79
2022/11/19 01:05:27;;;;;;;59.37;4.37;;;;;;;;;;5117736;28;20879;-79
2022/11/19 01:07:55;;;;;;;60.70;3.93;;;;;;;;;;5116979;28;20488;-79
2022/11/19 01:10:22;;;;;;;61.70;3.93;;;;;;;;;;5116822;28;20473;-80
2022/11/19 01:15:42;;;;;;;59.30;4.33;;;;;;;;;;5080099;28;20450;-80
2022/11/19 01:18:09;;;;;;;59.70;4.07;;;;;;;;;;5116654;28;20548;-81
2022/11/19 01:20:38;;;;;;;58.73;4.13;;;;;;;;;;5116084;28;20473;-81
2022/11/19 01:23:05;;;;;;;60.47;4.10;;;;;;;;;;5117176;28;20520;-81
2022/11/19 01:25:32;;;;;;;59.00;4.23;;;;;;;;;;5117295;28;20528;-81
2022/11/19 01:27:59;;;;;;;59.47;4.27;;;;;;;;;;5116920;28;20572;-81
2022/11/19 01:30:26;;;;;;;58.90;3.67;;;;;;;;;;5116948;28;20499;-82
2022/11/19 01:32:53;;;;;;;59.27;4.10;;;;;;;;;;5116628;28;20496;-82
2022/11/19 01:35:20;;;;;;;59.30;3.93;;;;;;;;;;5117461;28;20477;-82
2022/11/19 01:37:50;;;;;;;59.37;3.77;;;;;;;;;;5117497;28;20481;-82
2022/11/19 01:40:17;;;;;;;60.57;4.30;;;;;;;;;;5117535;28;20461;-82
2022/11/19 01:42:50;;;;;;;58.47;3.83;;;;;;;;;;5118346;28;20536;-82
2022/11/19 01:45:25;;;;;;;59.57;4.30;;;;;;;;;;5118384;28;20574;-82
2022/11/19 01:47:53;;;;;;;62.27;4.33;;;;;;;;;;5118765;28;20569;-82
2022/11/19 01:50:21;;;;;;;59.10;3.80;;;;;;;;;;5117416;28;20464;-82
2022/11/19 01:52:50;;;;;;;58.73;3.73;;;;;;;;;;5118971;28;20450;-83
2022/11/19 01:55:17;;;;;;;60.80;3.50;;;;;;;;;;5119300;28;20516;-83
2022/11/19 01:57:45;;;;;;;58.50;3.70;;;;;;;;;;5118598;28;20492;-83
2022/11/19 02:00:13;;;;;;;61.97;3.73;;;;;;;;;;5117364;28;20579;-83
2022/11/19 02:02:40;;;;;;;59.70;3.70;;;;;;;;;;5118339;28;20689;-83
2022/11/19 02:05:07;;;;;;;59.10;4.17;;;;;;;;;;5117939;28;20548;-83
2022/11/19 02:07:35;;;;;;;58.57;3.63;;;;;;;;;;5118130;28;20518;-82
2022/11/19 02:10:06;;;;;;;59.93;4.50;;;;;;;;;;5117548;28;20494;-83
2022/11/19 02:12:40;;;;;;;58.70;3.40;;;;;;;;;;5125309;28;20438;-81
2022/11/19 02:15:13;;;;;;;58.53;3.83;;;;;;;;;;5118290;28;20485;-83
2022/11/19 02:17:46;;;;;;;64.03;3.60;;;;;;;;;;5118153;28;20444;-83
2022/11/19 02:20:28;;;;;;;59.87;3.57;;;;;;;;;;5117567;28;20527;-82
2022/11/19 02:23:05;;;;;;;58.70;4.03;;;;;;;;;;5114722;28;20511;-83
2022/11/19 02:25:43;;;;;;;59.60;3.60;;;;;;;;;;5118000;28;20520;-83
2022/11/19 02:28:25;;;;;;;59.37;3.27;;;;;;;;;;5116250;28;20575;-82
2022/11/19 02:30:54;;;;;;;59.67;3.50;;;;;;;;;;5115524;28;20528;-82
2022/11/19 02:33:24;;;;;;;59.20;3.30;;;;;;;;;;5116084;28;20517;-82
2022/11/19 02:35:54;;;;;;;59.40;3.87;;;;;;;;;;5115628;28;20453;-82
2022/11/19 02:38:28;;;;;;;58.47;3.40;;;;;;;;;;5115975;28;20857;-82
2022/11/19 02:40:58;;;;;;;57.87;3.10;;;;;;;;;;5114965;28;20538;-82
2022/11/19 02:43:28;;;;;;;59.97;3.40;;;;;;;;;;5116295;28;21024;-82
2022/11/19 02:45:57;;;;;;;60.33;3.87;;;;;;;;;;5119269;28;20528;-82
2022/11/19 02:48:27;;;;;;;58.73;3.30;;;;;;;;;;5118719;28;20517;-82
2022/11/19 02:50:55;;;;;;;61.03;3.50;;;;;;;;;;5118523;28;20535;-82
2022/11/19 02:53:23;;;;;;;58.20;3.27;;;;;;;;;;5119280;28;20911;-81
2022/11/19 03:06:50;;;;;;;62.93;3.60;;;;;;;;;;5119613;28;20835;-81
2022/11/19 03:09:17;;;;;;;58.20;3.23;;;;;;;;;;5118633;28;20519;-81
2022/11/19 03:11:48;;;;;;;58.60;3.37;;;;;;;;;;5119706;28;20485;-81
2022/11/19 03:17:06;;;;;;;62.73;3.50;;;;;;;;;;5120947;28;20420;-81
2022/11/19 03:19:36;;;;;;;59.10;3.17;;;;;;;;;;5119795;28;20493;-80
2022/11/19 03:22:07;;;;;;;58.33;3.27;;;;;;;;;;5122017;28;20473;-79
2022/11/19 03:24:36;;;;;;;58.93;3.27;;;;;;;;;;5121622;28;20532;-79
2022/11/19 03:27:05;;;;;;;58.97;3.53;;;;;;;;;;5122282;28;20458;-79
2022/11/19 03:29:34;;;;;;;57.87;3.13;;;;;;;;;;5121447;28;20548;-79
2022/11/19 03:32:05;;;;;;;59.30;3.10;;;;;;;;;;5122031;28;20538;-79
2022/11/19 03:34:34;;;;;;;59.30;3.33;;;;;;;;;;5123307;28;20478;-79
2022/11/19 03:37:02;;;;;;;58.53;3.40;;;;;;;;;;5123424;28;20469;-78
2022/11/19 03:39:30;;;;;;;59.17;3.60;;;;;;;;;;5122112;28;20895;-79
2022/11/19 03:41:57;;;;;;;58.67;3.13;;;;;;;;;;5123886;28;21004;-79
2022/11/19 03:44:26;;;;;;;58.50;3.70;;;;;;;;;;5123400;28;20457;-79
2022/11/19 03:46:56;;;;;;;58.17;3.30;;;;;;;;;;5122238;28;20543;-79
2022/11/19 03:49:25;;;;;;;60.00;3.67;;;;;;;;;;5121292;28;20551;-78
2022/11/19 03:51:56;;;;;;;60.67;3.87;;;;;;;;;;5121556;28;20531;-78
2022/11/19 03:54:23;;;;;;;59.77;3.63;;;;;;;;;;5120808;28;20529;-78
2022/11/19 03:56:51;;;;;;;60.73;4.50;;;;;;;;;;5120874;28;20839;-78
2022/11/19 03:59:18;;;;;;;58.47;3.43;;;;;;;;;;5119660;28;20498;-78
2022/11/19 04:01:48;;;;;;;58.70;3.57;;;;;;;;;;5119607;28;20450;-78
2022/11/19 04:04:37;;;;;;;58.60;3.90;;;;;;;;;;5120564;28;20520;-78
2022/11/19 04:07:09;;;;;;;59.30;3.73;;;;;;;;;;5121021;28;20479;-78
2022/11/19 04:09:37;;;;;;;59.80;4.20;;;;;;;;;;5119032;28;20536;-78
2022/11/19 04:12:05;;;;;;;62.67;7.20;;;;;;;;;;5121852;28;20492;-79
2022/11/19 04:14:32;;;;;;;60.47;5.73;;;;;;;;;;5120334;28;20485;-79
2022/11/19 04:16:59;;;;;;;59.10;4.63;;;;;;;;;;5119721;28;20524;-79
2022/11/19 04:19:26;;;;;;;59.77;4.70;;;;;;;;;;5117203;28;20551;-80
2022/11/19 04:21:54;;;;;;;58.67;3.70;;;;;;;;;;5118295;28;20496;-80
2022/11/19 04:24:22;;;;;;;58.90;3.83;;;;;;;;;;5118112;28;20488;-80
2022/11/19 04:26:49;;;;;;;59.40;3.97;;;;;;;;;;5118292;28;21006;-80
2022/11/19 04:29:16;;;;;;;58.90;3.87;;;;;;;;;;5117001;28;20566;-81
2022/11/19 04:31:44;;;;;;;58.50;3.90;;;;;;;;;;5118057;28;20461;-81
2022/11/19 04:34:11;;;;;;;58.87;3.83;;;;;;;;;;5118089;28;20488;-80
2022/11/19 04:36:40;;;;;;;60.50;4.30;;;;;;;;;;5117863;28;21019;-81
2022/11/19 04:39:07;;;;;;;59.47;4.07;;;;;;;;;;5116924;28;20514;-81
2022/11/19 04:41:36;;;;;;;60.20;4.43;;;;;;;;;;5118288;28;20894;-80
2022/11/19 04:44:03;;;;;;;58.30;4.00;;;;;;;;;;5118608;28;20488;-80
2022/11/19 04:46:30;;;;;;;61.70;4.00;;;;;;;;;;5118703;28;20918;-81
2022/11/19 04:48:57;;;;;;;58.73;4.17;;;;;;;;;;5120007;28;20584;-81
2022/11/19 04:51:25;;;;;;;61.23;4.30;;;;;;;;;;5121727;28;20541;-80
2022/11/19 04:53:52;;;;;;;59.00;4.17;;;;;;;;;;5121867;28;20518;-82
2022/11/19 04:56:19;;;;;;;60.00;4.47;;;;;;;;;;5122328;28;20513;-81
2022/11/19 04:58:47;;;;;;;58.57;3.97;;;;;;;;;;5120859;28;20902;-82
2022/11/19 05:01:15;;;;;;;60.73;4.37;;;;;;;;;;5122956;28;20514;-82
2022/11/19 05:03:42;;;;;;;59.03;4.40;;;;;;;;;;5122608;28;20449;-82
2022/11/19 05:06:09;;;;;;;61.23;4.67;;;;;;;;;;5122021;28;20478;-81
2022/11/19 05:08:36;;;;;;;59.33;4.60;;;;;;;;;;5117631;28;20527;-82
2022/11/19 05:11:03;;;;;;;60.77;4.23;;;;;;;;;;5118571;28;20575;-82
2022/11/19 05:13:30;;;;;;;58.80;3.57;;;;;;;;;;5117902;28;20539;-81
2022/11/19 05:15:59;;;;;;;59.20;4.07;;;;;;;;;;5118782;28;20548;-82
2022/11/19 05:18:26;;;;;;;59.67;4.10;;;;;;;;;;5118128;28;20497;-81
2022/11/19 05:20:53;;;;;;;59.87;4.37;;;;;;;;;;5117525;28;20551;-82
2022/11/19 05:23:21;;;;;;;59.20;4.30;;;;;;;;;;5117286;28;20480;-81
2022/11/19 05:25:48;;;;;;;58.90;3.90;;;;;;;;;;5116277;28;20485;-81
2022/11/19 05:28:15;;;;;;;59.03;4.23;;;;;;;;;;5115910;28;20516;-82
2022/11/19 05:30:42;;;;;;;59.30;4.23;;;;;;;;;;5115744;28;20478;-81
2022/11/19 05:33:11;;;;;;;62.27;4.87;;;;;;;;;;5116541;28;20496;-81
2022/11/19 05:35:38;;;;;;;58.80;3.70;;;;;;;;;;5116559;28;20455;-80
2022/11/19 05:38:05;;;;;;;59.33;4.40;;;;;;;;;;5116737;28;20500;-80
2022/11/19 05:40:32;;;;;;;60.40;4.60;;;;;;;;;;5114602;28;20448;-81
2022/11/19 05:43:03;;;;;;;60.67;3.73;;;;;;;;;;5116141;28;20477;-81
2022/11/19 05:45:31;;;;;;;59.90;4.13;;;;;;;;;;5115860;28;20532;-81
2022/11/19 05:47:58;;;;;;;59.67;3.80;;;;;;;;;;5116035;28;20937;-80
2022/11/19 05:50:26;;;;;;;60.47;4.30;;;;;;;;;;5115583;28;20516;-80
2022/11/19 05:52:53;;;;;;;65.13;4.53;;;;;;;;;;5115478;28;20496;-80
2022/11/19 05:55:21;;;;;;;59.93;3.83;;;;;;;;;;5115501;28;20484;-81
2022/11/19 05:57:48;;;;;;;59.13;4.03;;;;;;;;;;5115989;28;20487;-80
2022/11/19 06:00:16;;;;;;;59.07;4.20;;;;;;;;;;5115253;28;20495;-80
2022/11/19 06:02:43;;;;;;;58.77;3.77;;;;;;;;;;5116025;28;20449;-80
2022/11/19 06:05:11;;;;;;;59.07;4.50;;;;;;;;;;5116050;28;20517;-80
2022/11/19 06:07:39;;;;;;;64.83;4.63;;;;;;;;;;5115683;28;20527;-80
2022/11/19 06:10:07;;;;;;;59.47;4.37;;;;;;;;;;5115102;28;20580;-80
2022/11/19 06:12:34;;;;;;;59.27;4.97;;;;;;;;;;5115808;28;20474;-80
2022/11/19 06:15:01;;;;;;;59.43;4.33;;;;;;;;;;5116475;28;20525;-80
2022/11/19 06:17:28;;;;;;;59.20;4.40;;;;;;;;;;5116486;28;20456;-80
2022/11/19 06:19:56;;;;;;;63.33;4.57;;;;;;;;;;5119196;28;20890;-80
2022/11/19 06:22:23;;;;;;;59.77;4.60;;;;;;;;;;5119690;28;20521;-80
2022/11/19 06:24:51;;;;;;;59.27;3.97;;;;;;;;;;5120053;28;20527;-80
2022/11/19 06:27:18;;;;;;;59.27;4.57;;;;;;;;;;5119967;28;20863;-80
2022/11/19 06:29:46;;;;;;;59.87;4.57;;;;;;;;;;5119628;28;20908;-80
2022/11/19 06:32:13;;;;;;;62.27;4.67;;;;;;;;;;5120273;28;20937;-80
2022/11/19 06:34:40;;;;;;;62.13;4.80;;;;;;;;;;5120365;28;20537;-80
2022/11/19 06:37:07;;;;;;;60.53;4.30;;;;;;;;;;5121066;28;20480;-80
2022/11/19 06:39:34;;;;;;;59.17;4.37;;;;;;;;;;5119520;28;20461;-80
2022/11/19 06:44:44;;;;;;;59.50;4.30;;;;;;;;;;5119236;28;20941;-80
2022/11/19 06:47:11;;;;;;;59.20;4.40;;;;;;;;;;5120220;28;20473;-80
2022/11/19 06:49:38;;;;;;;59.50;4.23;;;;;;;;;;5119824;28;20525;-79
2022/11/19 06:52:05;;;;;;;61.37;5.07;;;;;;;;;;5120570;28;20454;-80
2022/11/19 06:54:32;;;;;;;60.37;4.67;;;;;;;;;;5120454;28;20532;-80
2022/11/19 06:57:00;;;;;;;62.50;4.80;;;;;;;;;;5120425;28;20521;-80
2022/11/19 06:59:28;;;;;;;59.10;4.20;;;;;;;;;;5119226;28;21020;-80
2022/11/19 07:01:56;;;;;;;59.83;5.40;;;;;;;;;;5120854;28;20445;-80
2022/11/19 07:04:23;;;;;;;58.90;4.90;;;;;;;;;;5121880;28;20459;-80
2022/11/19 07:06:50;;;;;;;59.60;5.50;;;;;;;;;;5120266;28;20536;-80
2022/11/19 07:09:17;;;;;;;59.93;4.67;;;;;;;;;;5120172;28;20911;-79
2022/11/19 07:11:44;;;;;;;59.70;4.60;;;;;;;;;;5121029;28;20458;-79
2022/11/19 07:14:12;;;;;;;59.80;4.80;;;;;;;;;;5120824;28;20893;-79
2022/11/19 07:16:40;;;;;;;59.47;4.57;;;;;;;;;;5120616;28;20530;-79
2022/11/19 07:19:08;;;;;;;61.40;5.27;;;;;;;;;;5120681;28;20506;-79
2022/11/19 07:21:36;;;;;;;59.77;5.00;;;;;;;;;;5121338;28;20442;-79
2022/11/19 07:24:04;;;;;;;59.67;4.87;;;;;;;;;;5122038;28;20492;-80
2022/11/19 07:26:32;;;;;;;61.17;5.00;;;;;;;;;;5121948;28;20449;-79
2022/11/19 07:29:01;;;;;;;59.77;5.20;;;;;;;;;;5120786;28;20973;-79
2022/11/19 07:31:28;;;;;;;60.70;5.23;;;;;;;;;;5121022;28;20453;-79
2022/11/19 07:33:56;;;;;;;59.53;4.60;;;;;;;;;;5121765;28;20595;-79
2022/11/19 07:36:23;;;;;;;59.57;4.97;;;;;;;;;;5121139;28;20529;-79
2022/11/19 07:38:51;;;;;;;60.30;5.23;;;;;;;;;;5120810;28;21056;-79
2022/11/19 07:44:03;;;;;;;60.27;5.00;;;;;;;;;;5120892;28;20425;-79
2022/11/19 07:46:30;;;;;;;59.90;5.03;;;;;;;;;;5122229;28;20472;-79
2022/11/19 07:48:59;;;;;;;60.23;5.40;;;;;;;;;;5121092;28;20920;-79
2022/11/19 07:51:27;;;;;;;59.73;4.93;;;;;;;;;;5122518;28;20481;-79
2022/11/19 07:53:55;;;;;;;62.63;5.53;;;;;;;;;;5121630;28;20551;-79
2022/11/19 07:56:22;;;;;;;59.90;4.93;;;;;;;;;;5122222;28;20489;-79
2022/11/19 07:58:49;;;;;;;60.10;5.50;;;;;;;;;;5121134;28;20756;-79
2022/11/19 08:01:17;;;;;;;65.90;6.40;;;;;;;;;;5122593;28;20977;-79
2022/11/19 08:03:46;;;;;;;61.73;5.97;;;;;;;;;;5123198;28;20449;-79
2022/11/19 08:06:14;;;;;;;63.50;5.43;;;;;;;;;;5123357;28;20460;-79
2022/11/19 08:08:42;;;;;;;61.20;6.10;;;;;;;;;;5122424;28;20490;-79
2022/11/19 08:11:09;;;;;;;60.43;6.67;;;;;;;;;;5120949;28;20489;-77
2022/11/19 08:13:38;;;;;;;60.70;5.57;;;;;;;;;;5123678;28;20453;-79
2022/11/19 08:16:06;;;;;;;61.30;6.90;;;;;;;;;;5124441;28;20501;-79
2022/11/19 08:18:32;;;;;;;61.20;5.70;;;;;;;;;;5123132;28;20464;-79
2022/11/19 08:21:04;;;;;;;63.20;5.30;;;;;;;;;;5123503;28;20509;-79
2022/11/19 08:23:32;;;;;;;61.63;5.37;;;;;;;;;;5125046;28;20441;-79
2022/11/19 08:26:00;;;;;;;60.57;5.63;;;;;;;;;;5125226;28;20826;-79
2022/11/19 08:28:27;;;;;;;61.47;5.40;;;;;;;;;;5123690;28;20529;-78
2022/11/19 08:30:54;;;;;;;63.70;4.67;;;;;;;;;;5121306;28;20565;-78
2022/11/19 08:33:21;;;;;;;59.57;4.67;;;;;;;;;;5120443;28;20965;-78
2022/11/19 08:35:48;;;;;;;59.77;5.07;;;;;;;;;;5119616;28;20536;-78
2022/11/19 08:38:15;;;;;;;60.37;4.60;;;;;;;;;;5119003;28;20500;-78
2022/11/19 08:40:44;;;;;;;59.90;4.47;;;;;;;;;;5118138;28;20500;-78
2022/11/19 08:43:10;;;;;;;60.27;4.57;;;;;;;;;;5118756;28;20528;-77
2022/11/19 08:45:38;;;;;;;59.27;4.43;;;;;;;;;;5118198;28;20467;-77
2022/11/19 08:48:08;;;;;;;59.77;5.17;;;;;;;;;;5116877;28;20501;-77
2022/11/19 08:50:35;;;;;;;59.20;5.03;;;;;;;;;;5116041;28;20481;-77
2022/11/19 08:53:04;;;;;;;59.37;4.07;;;;;;;;;;5115297;28;20484;-77
2022/11/19 08:55:32;;;;;;;59.60;4.77;;;;;;;;;;5114798;28;20473;-77
2022/11/19 08:58:04;;;;;;;60.03;4.50;;;;;;;;;;5114028;28;20505;-77
2022/11/19 09:00:32;;;;;;;60.80;4.67;;;;;;;;;;5112827;28;20532;-77
2022/11/19 09:02:59;;;;;;;59.50;4.73;;;;;;;;;;5113649;28;20449;-77
2022/11/19 09:05:26;;;;;;;61.70;4.23;;;;;;;;;;5113344;28;20530;-77
2022/11/19 09:07:55;;;;;;;60.70;4.50;;;;;;;;;;5112878;28;20569;-77
2022/11/19 09:10:22;;;;;;;59.70;4.33;;;;;;;;;;5111814;28;20592;-77
2022/11/19 09:12:50;;;;;;;61.10;4.97;;;;;;;;;;5111589;28;20544;-77
2022/11/19 09:15:18;;;;;;;59.03;3.83;;;;;;;;;;5111450;28;20817;-77
2022/11/19 09:17:46;;;;;;;58.73;4.13;;;;;;;;;;5111640;28;20456;-77
2022/11/19 09:20:13;;;;;;;67.53;4.63;;;;;;;;;;5110918;28;20524;-77
2022/11/19 09:22:40;;;;;;;59.03;4.20;;;;;;;;;;5111370;28;20536;-76
2022/11/19 09:25:08;;;;;;;67.90;5.07;;;;;;;;;;5111645;28;20452;-77
2022/11/19 09:27:36;;;;;;;58.77;4.13;;;;;;;;;;5112293;28;20446;-77
2022/11/19 09:30:04;;;;;;;59.90;4.37;;;;;;;;;;5111826;28;20521;-77
2022/11/19 09:32:32;;;;;;;58.67;3.80;;;;;;;;;;5112759;28;20532;-77
2022/11/19 09:34:59;;;;;;;58.60;3.80;;;;;;;;;;5112626;28;20567;-77
2022/11/19 09:37:30;;;;;;;60.00;4.60;;;;;;;;;;5112461;28;20962;-76
2022/11/19 09:39:57;;;;;;;58.03;3.20;;;;;;;;;;5111640;28;20437;-76
2022/11/19 09:42:31;;;;;;;58.87;3.60;;;;;;;;;;5112629;28;20457;-76
2022/11/19 09:45:15;;;;;;;58.77;4.03;;;;;;;;;;5112483;28;20449;-76
2022/11/19 09:47:53;;;;;;;58.57;3.70;;;;;;;;;;5112326;28;20449;-76
2022/11/19 09:50:23;;;;;;;59.57;3.60;;;;;;;;;;5111508;28;21082;-76
2022/11/19 09:52:52;;;;;;;58.50;3.40;;;;;;;;;;5111991;28;20989;-76
2022/11/19 09:55:24;;;;;;;59.43;3.33;;;;;;;;;;5116770;28;20450;-76
2022/11/19 09:57:53;;;;;;;58.77;3.13;;;;;;;;;;5116451;28;20520;-76
2022/11/19 10:00:22;;;;;;;57.80;2.77;;;;;;;;;;5115875;28;20880;-76
2022/11/19 10:02:52;;;;;;;58.60;3.10;;;;;;;;;;5116379;28;20502;-76
2022/11/19 10:05:25;;;;;;;58.00;3.00;;;;;;;;;;5116168;28;20449;-76
2022/11/19 10:07:56;;;;;;;61.20;2.97;;;;;;;;;;5116126;28;20469;-76
2022/11/19 10:10:28;;;;;;;58.17;3.30;;;;;;;;;;5115496;28;20491;-76
2022/11/19 10:13:10;;;;;;;59.07;3.60;;;;;;;;;;5116273;28;20480;-76
2022/11/19 10:15:38;;;;;;;65.50;3.50;;;;;;;;;;5116008;28;20981;-76
2022/11/19 10:18:12;;;;;;;58.97;3.30;;;;;;;;;;5116112;28;20845;-76
2022/11/19 10:20:49;;;;;;;58.40;3.30;;;;;;;;;;5115354;28;20537;-76
2022/11/19 10:23:18;;;;;;;59.30;4.00;;;;;;;;;;5116299;28;20444;-76
2022/11/19 10:25:46;;;;;;;58.77;3.50;;;;;;;;;;5115939;28;20637;-76
2022/11/19 10:28:14;;;;;;;59.70;3.60;;;;;;;;;;5116181;28;20476;-76
2022/11/19 10:30:42;;;;;;;58.97;3.97;;;;;;;;;;5115305;28;20485;-76
2022/11/19 10:33:14;;;;;;;60.10;3.67;;;;;;;;;;5116115;28;20475;-76
2022/11/19 10:35:44;;;;;;;59.60;3.60;;;;;;;;;;5115820;28;20544;-76
2022/11/19 10:38:12;;;;;;;58.70;4.00;;;;;;;;;;5115640;28;20504;-76
2022/11/19 10:40:42;;;;;;;58.40;3.50;;;;;;;;;;5115067;28;20523;-76
2022/11/19 10:43:16;;;;;;;58.37;3.33;;;;;;;;;;5115859;28;20488;-76
2022/11/19 10:45:43;;;;;;;58.47;3.50;;;;;;;;;;5115591;28;20973;-76
2022/11/19 10:48:14;;;;;;;59.10;4.00;;;;;;;;;;5115689;28;20501;-76
2022/11/19 10:50:41;;;;;;;59.50;3.30;;;;;;;;;;5114806;28;20568;-76
2022/11/19 10:53:14;;;;;;;58.20;3.40;;;;;;;;;;5115379;28;20453;-77
2022/11/19 10:55:42;;;;;;;58.50;3.40;;;;;;;;;;5115449;28;20455;-77
2022/11/19 10:58:14;;;;;;;59.40;3.10;;;;;;;;;;5115135;28;20521;-77
2022/11/19 11:00:41;;;;;;;58.83;3.33;;;;;;;;;;5114719;28;20441;-77
2022/11/19 11:03:16;;;;;;;59.03;3.63;;;;;;;;;;5115297;28;20491;-77
2022/11/19 11:05:54;;;;;;;58.40;3.40;;;;;;;;;;5114655;28;20494;-77
2022/11/19 11:08:21;;;;;;;60.30;3.53;;;;;;;;;;5115264;28;20469;-77
2022/11/19 11:10:49;;;;;;;58.43;3.40;;;;;;;;;;5114623;28;20485;-77
2022/11/19 11:16:17;;;;;;;59.10;3.30;;;;;;;;;;5115031;28;20474;-77
2022/11/19 11:18:46;;;;;;;59.57;3.33;;;;;;;;;;5114539;28;20457;-77
2022/11/19 11:21:21;;;;;;;59.50;3.30;;;;;;;;;;5114967;28;20484;-77
2022/11/19 11:23:50;;;;;;;57.97;2.97;;;;;;;;;;5115074;28;20469;-77
2022/11/19 11:26:23;;;;;;;59.33;3.43;;;;;;;;;;5114761;28;20481;-77
2022/11/19 11:29:04;;;;;;;57.70;3.40;;;;;;;;;;5114382;28;20469;-77
2022/11/19 11:31:32;;;;;;;58.50;3.47;;;;;;;;;;5114844;28;20511;-77
2022/11/19 11:34:02;;;;;;;59.90;3.67;;;;;;;;;;5114714;28;20532;-77
2022/11/19 11:36:31;;;;;;;62.53;4.40;;;;;;;;;;5114631;28;20444;-77
2022/11/19 11:39:00;;;;;;;60.57;4.73;;;;;;;;;;5113897;28;20476;-77
2022/11/19 11:41:33;;;;;;;62.20;4.60;;;;;;;;;;5114619;28;20929;-77
2022/11/19 11:44:02;;;;;;;59.30;4.20;;;;;;;;;;5114754;28;20888;-77
2022/11/19 11:46:40;;;;;;;61.90;4.60;;;;;;;;;;5114404;28;20540;-77
2022/11/19 11:49:12;;;;;;;64.27;4.20;;;;;;;;;;5113818;28;20466;-77
2022/11/19 11:51:40;;;;;;;60.47;3.80;;;;;;;;;;5114284;28;21104;-77
2022/11/19 11:54:16;;;;;;;60.63;4.13;;;;;;;;;;5114577;28;20847;-77
2022/11/19 11:56:43;;;;;;;61.20;4.20;;;;;;;;;;5114654;28;20434;-77
2022/11/19 11:59:23;;;;;;;61.57;4.80;;;;;;;;;;5113587;28;20584;-77
2022/11/19 12:01:54;;;;;;;60.40;4.20;;;;;;;;;;5114015;28;20477;-77
2022/11/19 12:04:22;;;;;;;61.37;4.83;;;;;;;;;;5114088;28;20452;-77
2022/11/19 12:06:53;;;;;;;58.57;4.00;;;;;;;;;;5114458;28;20453;-77
2022/11/19 12:09:22;;;;;;;60.97;3.93;;;;;;;;;;5113198;28;20469;-77
2022/11/19 12:11:56;;;;;;;60.50;3.80;;;;;;;;;;5114045;28;20581;-77
2022/11/19 12:14:25;;;;;;;60.90;3.90;;;;;;;;;;5113783;28;20457;-77
2022/11/19 12:16:58;;;;;;;59.50;3.60;;;;;;;;;;5113138;28;20886;-77
2022/11/19 12:19:35;;;;;;;60.00;3.97;;;;;;;;;;5113236;28;21009;-77
2022/11/19 12:22:07;;;;;;;58.47;3.30;;;;;;;;;;5113757;28;20477;-77
2022/11/19 12:24:41;;;;;;;59.07;4.00;;;;;;;;;;5113683;28;20445;-77
2022/11/19 12:27:17;;;;;;;59.27;3.53;;;;;;;;;;5113732;28;20735;-77
2022/11/19 12:29:47;;;;;;;58.50;3.80;;;;;;;;;;5113033;28;20977;-77
2022/11/19 12:32:22;;;;;;;58.90;4.00;;;;;;;;;;5113764;28;20920;-77
2022/11/19 12:35:08;;;;;;;58.70;3.73;;;;;;;;;;5113524;28;20540;-77
2022/11/19 12:37:42;;;;;;;60.07;5.10;;;;;;;;;;5097829;28;20882;-77
2022/11/19 12:40:16;;;;;;;59.97;4.30;;;;;;;;;;5112977;28;20448;-77
2022/11/19 12:42:48;;;;;;;59.50;4.33;;;;;;;;;;5113409;28;20529;-77
2022/11/19 12:45:21;;;;;;;59.10;4.00;;;;;;;;;;5113241;28;20449;-77
2022/11/19 12:48:06;;;;;;;58.47;3.60;;;;;;;;;;5113294;28;20524;-77
2022/11/19 12:50:51;;;;;;;59.50;5.40;;;;;;;;;;5112338;28;20524;-77
2022/11/19 12:53:23;;;;;;;58.67;4.10;;;;;;;;;;5113050;28;20437;-76
2022/11/19 12:55:56;;;;;;;58.10;4.20;;;;;;;;;;5112959;28;20469;-76
2022/11/19 12:58:27;;;;;;;58.37;4.03;;;;;;;;;;5112689;28;20570;-76
2022/11/19 13:00:57;;;;;;;60.50;4.40;;;;;;;;;;5112697;28;20441;-76
2022/11/19 13:03:33;;;;;;;60.63;4.67;;;;;;;;;;5112821;28;20473;-76
2022/11/19 13:06:02;;;;;;;61.97;4.73;;;;;;;;;;5112852;28;21018;-76
2022/11/19 13:08:35;;;;;;;59.47;5.00;;;;;;;;;;5112582;28;20876;-76
2022/11/19 13:11:06;;;;;;;59.10;4.00;;;;;;;;;;5113059;28;20838;-76
2022/11/19 13:13:35;;;;;;;60.50;5.03;;;;;;;;;;5112956;28;20522;-76
2022/11/19 13:16:04;;;;;;;59.57;4.30;;;;;;;;;;5112804;28;20484;-76
2022/11/19 13:18:33;;;;;;;59.67;4.50;;;;;;;;;;5112345;28;20518;-76
2022/11/19 13:21:01;;;;;;;60.13;4.97;;;;;;;;;;5112715;28;20864;-76
2022/11/19 13:23:31;;;;;;;63.00;6.30;;;;;;;;;;5112775;28;20532;-76
2022/11/19 13:26:03;;;;;;;65.07;10.13;;;;;;;;;;5112904;28;20434;-76
2022/11/19 13:28:33;;;;;;;76.90;20.17;;;;;;;;;;5112176;28;20500;-76
2022/11/19 13:31:02;;;;;;;119.70;37.00;;;;;;;;;;5112335;28;20474;-76
2022/11/19 13:33:33;;;;;;;145.17;58.77;;;;;;;;;;5112328;28;20502;-76
2022/11/19 13:36:03;;;;;;;135.27;49.90;;;;;;;;;;5112648;28;20470;-76
2022/11/19 13:38:42;;;;;;;72.00;12.47;;;;;;;;;;5112472;28;20501;-76
2022/11/19 13:41:12;;;;;;;63.60;6.30;;;;;;;;;;5112367;28;20442;-76
2022/11/19 13:46:26;;;;;;;72.63;12.83;;;;;;;;;;5112358;28;20420;-76
2022/11/19 13:48:56;;;;;;;91.30;22.63;;;;;;;;;;5111972;28;20644;-76
2022/11/19 13:51:28;;;;;;;66.97;11.30;;;;;;;;;;5112419;28;20889;-76
2022/11/19 13:53:56;;;;;;;66.00;7.20;;;;;;;;;;5112316;28;20469;-76
2022/11/19 13:56:37;;;;;;;59.60;5.20;;;;;;;;;;5112118;28;20442;-76
2022/11/19 13:59:05;;;;;;;83.30;20.80;;;;;;;;;;5111704;28;20859;-76
2022/11/19 14:01:48;;;;;;;75.37;15.73;;;;;;;;;;5112140;28;20469;-76
2022/11/19 14:04:21;;;;;;;75.40;14.40;;;;;;;;;;5112212;28;20918;-76
2022/11/19 14:06:55;;;;;;;72.20;13.83;;;;;;;;;;5112281;28;20513;-77
2022/11/19 14:09:28;;;;;;;72.33;8.67;;;;;;;;;;5111841;28;20508;-76
2022/11/19 14:12:07;;;;;;;67.83;7.53;;;;;;;;;;5111975;28;20481;-76
2022/11/19 14:26:43;;;;;;;112.30;35.77;;;;;;;;;;5111971;28;20446;-77
2022/11/19 14:29:36;;;;;;;309.43;153.27;;;;;;;;;;5110956;28;20470;-77
2022/11/19 14:32:24;;;;;;;91.17;24.87;;;;;;;;;;5111627;27;20512;-76
2022/11/19 14:35:07;;;;;;;137.03;55.33;;;;;;;;;;5103869;28;20544;-77
2022/11/19 14:37:35;;;;;;;117.13;42.93;;;;;;;;;;5111763;28;20449;-76
2022/11/19 14:40:11;;;;;;;88.77;22.90;;;;;;;;;;5112994;28;20540;-76
2022/11/19 14:45:40;;;;;;;74.03;16.70;;;;;;;;;;5114354;27;20432;-76
2022/11/19 14:48:08;;;;;;;66.20;11.47;;;;;;;;;;5115363;28;20545;-76
2022/11/19 14:50:35;;;;;;;62.87;8.53;;;;;;;;;;5114659;28;21033;-76
2022/11/19 14:53:02;;;;;;;65.77;12.97;;;;;;;;;;5115663;28;20488;-76
2022/11/19 14:55:30;;;;;;;68.43;12.53;;;;;;;;;;5115580;28;20532;-76
2022/11/19 14:57:59;;;;;;;67.33;11.73;;;;;;;;;;5115048;28;21090;-76
2022/11/19 15:00:28;;;;;;;70.37;14.67;;;;;;;;;;5115152;28;20488;-76
2022/11/19 15:02:57;;;;;;;63.60;8.57;;;;;;;;;;5115244;28;20495;-76
2022/11/19 15:05:29;;;;;;;65.97;7.27;;;;;;;;;;5115182;28;20942;-76
2022/11/19 15:08:11;;;;;;;67.67;9.87;;;;;;;;;;5114970;28;20989;-76
2022/11/19 15:10:48;;;;;;;63.97;8.53;;;;;;;;;;5114845;28;20987;-76
2022/11/19 15:13:26;;;;;;;61.87;8.00;;;;;;;;;;5115038;28;20637;-76
2022/11/19 15:15:58;;;;;;;68.10;10.37;;;;;;;;;;5114964;28;20540;-76
2022/11/19 15:18:37;;;;;;;69.70;16.83;;;;;;;;;;5114743;28;20473;-76
2022/11/19 15:21:17;;;;;;;62.67;8.43;;;;;;;;;;5115160;28;20456;-76
2022/11/19 15:23:47;;;;;;;65.40;8.60;;;;;;;;;;5115019;28;20838;-76
2022/11/19 15:26:19;;;;;;;67.67;8.10;;;;;;;;;;5115023;28;20438;-76
2022/11/19 15:28:54;;;;;;;62.20;7.43;;;;;;;;;;5114491;28;20548;-76